Time;durP1;ratioP1;P1;durP2;ratioP2;P2;SDS_P1;SDS_P2;PMS_P1;PMS_P2;Temp;Humidity;BMP_temperature;BMP_pressure;BME280_temperature;BME280_humidity;BME280_pressure;Samples;Min_cycle;Max_cycle;Signal;HPM_P1;HPM_P2
2023/01/11 00:00:25;;;;;;;;;;;;;;;;;;1043911;28;4410;-60
2023/01/11 00:01:15;;;;;;;;;;;;;;;;;;1045619;28;4419;-59
2023/01/11 00:01:52;;;;;;;;;;;;;;;;;;1047089;28;2089;-60
2023/01/11 00:02:22;;;;;;;;;;;;;;;;;;1047134;28;4238;-59
2023/01/11 00:02:56;;;;;;;;;;;;;;;;;;1045845;28;2654;-60
2023/01/11 00:03:28;;;;;;;;;;;;;;;;;;1045213;28;3909;-59
2023/01/11 00:03:58;;;;;;;;;;;;;;;;;;1045932;28;2552;-60
2023/01/11 00:04:29;;;;;;;;;;;;;;;;;;1045971;28;3934;-60
2023/01/11 00:04:59;;;;;;;;;;;;;;;;;;1044036;28;2924;-60
2023/01/11 00:05:29;;;;;;;;;;;;;;;;;;1045226;28;3939;-60
2023/01/11 00:06:00;;;;;;;;;;;;;;;;;;1043909;28;2427;-60
2023/01/11 00:06:30;;;;;;;;;;;;;;;;;;1047018;28;4046;-60
2023/01/11 00:07:00;;;;;;;;;;;;;;;;;;1045834;28;2240;-59
2023/01/11 00:07:30;;;;;;;;;;;;;;;;;;1047257;28;4260;-59
2023/01/11 00:08:01;;;;;;;;;;;;;;;;;;1045495;28;2972;-60
2023/01/11 00:08:31;;;;;;;;;;;;;;;;;;1045286;28;4040;-59
2023/01/11 00:09:01;;;;;;;;;;;;;;;;;;1045113;28;2935;-59
2023/01/11 00:09:31;;;;;;;;;;;;;;;;;;1044624;28;4053;-59
2023/01/11 00:10:03;;;;;;;;;;;;;;;;;;1044858;28;2950;-59
2023/01/11 00:10:34;;;;;;;;;;;;;;;;;;1044730;28;3899;-60
2023/01/11 00:11:09;;;;;;;;;;;;;;;;;;1045586;28;2071;-60
2023/01/11 00:11:40;;;;;;;;;;;;;;;;;;1045767;28;3909;-60
2023/01/11 00:12:17;;;;;;;;;;;;;;;;;;1044746;28;4416;-60
2023/01/11 00:12:47;;;;;;;;;;;;;;;;;;1046780;28;2398;-59
2023/01/11 00:13:17;;;;;;;;;;;;;;;;;;1046551;28;3926;-61
2023/01/11 00:13:47;;;;;;;;;;;;;;;;;;1046674;28;1880;-60
2023/01/11 00:14:18;;;;;;;;;;;;;;;;;;1045296;28;3953;-60
2023/01/11 00:14:48;;;;;;;;;;;;;;;;;;1046440;28;3042;-60
2023/01/11 00:15:18;;;;;;;;;;;;;;;;;;1045706;28;3929;-59
2023/01/11 00:15:48;;;;;;;;;;;;;;;;;;1047190;28;1571;-60
2023/01/11 00:16:19;;;;;;;;;;;;;;;;;;1045714;28;4065;-59
2023/01/11 00:16:49;;;;;;;;;;;;;;;;;;1044328;28;2772;-60
2023/01/11 00:17:19;;;;;;;;;;;;;;;;;;1046613;28;3970;-60
2023/01/11 00:17:49;;;;;;;;;;;;;;;;;;1046741;28;2108;-59
2023/01/11 00:18:20;;;;;;;;;;;;;;;;;;1046779;28;3957;-60
2023/01/11 00:18:50;;;;;;;;;;;;;;;;;;1043444;28;2648;-60
2023/01/11 00:19:20;;;;;;;;;;;;;;;;;;1044317;28;4355;-60
2023/01/11 00:19:50;;;;;;;;;;;;;;;;;;1045665;28;3186;-60
2023/01/11 00:20:21;;;;;;;;;;;;;;;;;;1046778;28;3834;-59
2023/01/11 00:20:51;;;;;;;;;;;;;;;;;;1045251;28;2378;-60
2023/01/11 00:21:21;;;;;;;;;;;;;;;;;;1045378;28;4023;-60
2023/01/11 00:21:51;;;;;;;;;;;;;;;;;;1046061;28;2406;-60
2023/01/11 00:22:22;;;;;;;;;;;;;;;;;;1046642;28;4350;-60
2023/01/11 00:22:52;;;;;;;;;;;;;;;;;;1046951;28;2120;-59
2023/01/11 00:23:22;;;;;;;;;;;;;;;;;;1046786;28;3759;-58
2023/01/11 00:23:53;;;;;;;;;;;;;;;;;;1046567;28;2249;-60
2023/01/11 00:24:23;;;;;;;;;;;;;;;;;;1044459;28;3989;-58
2023/01/11 00:24:53;;;;;;;;;;;;;;;;;;1046781;28;2069;-60
2023/01/11 00:25:23;;;;;;;;;;;;;;;;;;1046126;28;4385;-59
2023/01/11 00:25:54;;;;;;;;;;;;;;;;;;1046454;28;2042;-59
2023/01/11 00:26:24;;;;;;;;;;;;;;;;;;1045696;28;3866;-59
2023/01/11 00:26:54;;;;;;;;;;;;;;;;;;1048605;28;1718;-60
2023/01/11 00:27:25;;;;;;;;;;;;;;;;;;1045989;28;4464;-60
2023/01/11 00:27:55;;;;;;;;;;;;;;;;;;1046073;28;2614;-59
2023/01/11 00:28:25;;;;;;;;;;;;;;;;;;1047046;28;4116;-59
2023/01/11 00:28:55;;;;;;;;;;;;;;;;;;1046586;28;2288;-60
2023/01/11 00:29:25;;;;;;;;;;;;;;;;;;1043976;28;3839;-60
2023/01/11 00:29:56;;;;;;;;;;;;;;;;;;1047785;28;1681;-60
2023/01/11 00:30:26;;;;;;;;;;;;;;;;;;1045720;28;3890;-60
2023/01/11 00:30:56;;;;;;;;;;;;;;;;;;1046920;28;1653;-60
2023/01/11 00:31:27;;;;;;;;;;;;;;;;;;1043262;28;3827;-59
2023/01/11 00:31:57;;;;;;;;;;;;;;;;;;1044953;28;2806;-59
2023/01/11 00:32:27;;;;;;;;;;;;;;;;;;1046244;28;3773;-59
2023/01/11 00:32:58;;;;;;;;;;;;;;;;;;1047973;28;1650;-60
2023/01/11 00:33:28;;;;;;;;;;;;;;;;;;1045652;28;3855;-60
2023/01/11 00:33:59;;;;;;;;;;;;;;;;;;1046305;28;2384;-60
2023/01/11 00:34:29;;;;;;;;;;;;;;;;;;1045397;28;4409;-57
2023/01/11 00:35:00;;;;;;;;;;;;;;;;;;1047062;28;1850;-61
2023/01/11 00:35:31;;;;;;;;;;;;;;;;;;1047080;28;3896;-60
2023/01/11 00:36:01;;;;;;;;;;;;;;;;;;1046645;28;2774;-60
2023/01/11 00:36:31;;;;;;;;;;;;;;;;;;1044650;28;3801;-59
2023/01/11 00:37:03;;;;;;;;;;;;;;;;;;1046236;28;2184;-60
2023/01/11 00:37:33;;;;;;;;;;;;;;;;;;1045657;28;4192;-59
2023/01/11 00:38:04;;;;;;;;;;;;;;;;;;1042256;28;2986;-60
2023/01/11 00:38:45;;;;;;;;;;;;;;;;;;1045681;28;3993;-59
2023/01/11 00:39:15;;;;;;;;;;;;;;;;;;1042996;28;3920;-60
2023/01/11 00:39:45;;;;;;;;;;;;;;;;;;1046482;28;3003;-60
2023/01/11 00:40:16;;;;;;;;;;;;;;;;;;1046521;28;4145;-60
2023/01/11 00:40:46;;;;;;;;;;;;;;;;;;1046800;28;1892;-60
2023/01/11 00:47:55;;;;;;;;;;;;;;;;;;1047271;28;3943;-59
2023/01/11 00:48:29;;;;;;;;;;;;;;;;;;1051222;28;4171;-59
2023/01/11 00:48:59;;;;;;;;;;;;;;;;;;1051998;28;2961;-60
2023/01/11 00:49:29;;;;;;;;;;;;;;;;;;1053732;28;4198;-59
2023/01/11 00:50:00;;;;;;;;;;;;;;;;;;1047906;28;2708;-60
2023/01/11 00:50:31;;;;;;;;;;;;;;;;;;1048090;28;3786;-60
2023/01/11 00:51:01;;;;;;;;;;;;;;;;;;1048373;28;2468;-60
2023/01/11 00:51:32;;;;;;;;;;;;;;;;;;1046227;28;3942;-59
2023/01/11 00:52:07;;;;;;;;;;;;;;;;;;1053681;28;1727;-60
2023/01/11 00:52:37;;;;;;;;;;;;;;;;;;1052600;28;3874;-60
2023/01/11 00:53:08;;;;;;;;;;;;;;;;;;1051292;28;1555;-60
2023/01/11 00:53:38;;;;;;;;;;;;;;;;;;1054697;28;4257;-59
2023/01/11 00:54:08;;;;;;;;;;;;;;;;;;1052774;28;2983;-59
2023/01/11 00:54:39;;;;;;;;;;;;;;;;;;1052588;28;3953;-58
2023/01/11 00:55:09;;;;;;;;;;;;;;;;;;1048167;28;1808;-60
2023/01/11 00:55:39;;;;;;;;;;;;;;;;;;1047800;28;4581;-60
2023/01/11 00:56:10;;;;;;;;;;;;;;;;;;1045491;28;2944;-60
2023/01/11 00:56:40;;;;;;;;;;;;;;;;;;1046856;28;4027;-59
2023/01/11 00:57:10;;;;;;;;;;;;;;;;;;1049361;28;1903;-60
2023/01/11 00:57:40;;;;;;;;;;;;;;;;;;1047128;28;4037;-60
2023/01/11 00:58:11;;;;;;;;;;;;;;;;;;1047647;28;3015;-59
2023/01/11 00:58:41;;;;;;;;;;;;;;;;;;1047603;28;3767;-59
2023/01/11 00:59:11;;;;;;;;;;;;;;;;;;1049634;28;2728;-60
2023/01/11 00:59:42;;;;;;;;;;;;;;;;;;1048882;28;3912;-60
2023/01/11 01:00:12;;;;;;;;;;;;;;;;;;1053674;28;3880;-59
2023/01/11 01:00:42;;;;;;;;;;;;;;;;;;1051764;28;2893;-59
2023/01/11 01:01:12;;;;;;;;;;;;;;;;;;1052092;28;4078;-59
2023/01/11 01:01:43;;;;;;;;;;;;;;;;;;1052001;28;2799;-58
2023/01/11 01:02:13;;;;;;;;;;;;;;;;;;1053347;28;3927;-58
2023/01/11 01:02:43;;;;;;;;;;;;;;;;;;1054839;28;1770;-59
2023/01/11 01:03:14;;;;;;;;;;;;;;;;;;1054843;28;4216;-61
2023/01/11 01:03:44;;;;;;;;;;;;;;;;;;1052144;28;2748;-58
2023/01/11 01:04:14;;;;;;;;;;;;;;;;;;1048881;28;4846;-60
2023/01/11 01:04:45;;;;;;;;;;;;;;;;;;1049336;28;2608;-59
2023/01/11 01:05:16;;;;;;;;;;;;;;;;;;1048958;28;3941;-59
2023/01/11 01:05:46;;;;;;;;;;;;;;;;;;1047640;28;2918;-59
2023/01/11 01:06:16;;;;;;;;;;;;;;;;;;1054731;28;3952;-60
2023/01/11 01:06:47;;;;;;;;;;;;;;;;;;1052188;28;2847;-59
2023/01/11 01:07:17;;;;;;;;;;;;;;;;;;1052878;28;4024;-59
2023/01/11 01:07:48;;;;;;;;;;;;;;;;;;1052153;28;2986;-59
2023/01/11 01:08:18;;;;;;;;;;;;;;;;;;1051641;28;4037;-60
2023/01/11 01:08:48;;;;;;;;;;;;;;;;;;1055278;28;1756;-60
2023/01/11 01:09:18;;;;;;;;;;;;;;;;;;1052675;28;3843;-59
2023/01/11 01:09:49;;;;;;;;;;;;;;;;;;1052467;28;2619;-60
2023/01/11 01:10:19;;;;;;;;;;;;;;;;;;1053352;28;3974;-59
2023/01/11 01:10:50;;;;;;;;;;;;;;;;;;1055312;28;1699;-59
2023/01/11 01:11:21;;;;;;;;;;;;;;;;;;1052400;28;4361;-60
2023/01/11 01:11:51;;;;;;;;;;;;;;;;;;1053617;28;2544;-59
2023/01/11 01:14:47;;;;;;;;;;;;;;;;;;1051664;28;3841;-60
2023/01/11 01:15:18;;;;;;;;;;;;;;;;;;1051507;28;4407;-60
2023/01/11 01:15:55;;;;;;;;;;;;;;;;;;1054477;28;2530;-60
2023/01/11 01:16:25;;;;;;;;;;;;;;;;;;1050966;28;4430;-59
2023/01/11 01:17:01;;;;;;;;;;;;;;;;;;1051555;28;1699;-60
2023/01/11 01:17:31;;;;;;;;;;;;;;;;;;1052134;28;3759;-59
2023/01/11 01:18:01;;;;;;;;;;;;;;;;;;1051247;28;2902;-60
2023/01/11 01:18:31;;;;;;;;;;;;;;;;;;1051171;28;3800;-60
2023/01/11 01:19:02;;;;;;;;;;;;;;;;;;1054633;28;2392;-60
2023/01/11 01:19:33;;;;;;;;;;;;;;;;;;1051814;28;4055;-60
2023/01/11 01:20:04;;;;;;;;;;;;;;;;;;1055618;28;1553;-59
2023/01/11 01:20:34;;;;;;;;;;;;;;;;;;1051788;28;4039;-59
2023/01/11 01:21:05;;;;;;;;;;;;;;;;;;1054606;28;2144;-59
2023/01/11 01:21:36;;;;;;;;;;;;;;;;;;1053278;28;3813;-60
2023/01/11 01:22:06;;;;;;;;;;;;;;;;;;1054973;27;2087;-59
2023/01/11 01:22:37;;;;;;;;;;;;;;;;;;1051624;28;4172;-59
2023/01/11 01:23:13;;;;;;;;;;;;;;;;;;1053930;28;2035;-60
2023/01/11 01:23:44;;;;;;;;;;;;;;;;;;1051549;28;3853;-60
2023/01/11 01:24:14;;;;;;;;;;;;;;;;;;1055042;28;4071;-59
2023/01/11 01:24:44;;;;;;;;;;;;;;;;;;1048593;28;2288;-59
2023/01/11 01:25:21;;;;;;;;;;;;;;;;;;1048645;28;3935;-60
2023/01/11 01:25:52;;;;;;;;;;;;;;;;;;1047573;28;1453;-59
2023/01/11 01:26:22;;;;;;;;;;;;;;;;;;1049722;28;4008;-60
2023/01/11 01:26:53;;;;;;;;;;;;;;;;;;1051933;28;3103;-60
2023/01/11 01:27:24;;;;;;;;;;;;;;;;;;1051046;28;3945;-60
2023/01/11 01:27:54;;;;;;;;;;;;;;;;;;1047745;28;2789;-60
2023/01/11 01:28:24;;;;;;;;;;;;;;;;;;1049438;28;3912;-59
2023/01/11 01:28:54;;;;;;;;;;;;;;;;;;1048260;28;2047;-59
2023/01/11 01:29:25;;;;;;;;;;;;;;;;;;1050736;28;4026;-60
2023/01/11 01:29:55;;;;;;;;;;;;;;;;;;1047837;28;1796;-60
2023/01/11 01:30:25;;;;;;;;;;;;;;;;;;1047995;28;3794;-60
2023/01/11 01:30:56;;;;;;;;;;;;;;;;;;1046123;28;1653;-59
2023/01/11 01:31:26;;;;;;;;;;;;;;;;;;1047566;28;3777;-60
2023/01/11 01:31:56;;;;;;;;;;;;;;;;;;1051019;28;1988;-60
2023/01/11 01:32:26;;;;;;;;;;;;;;;;;;1052446;28;4031;-60
2023/01/11 01:32:57;;;;;;;;;;;;;;;;;;1050799;28;2001;-60
2023/01/11 01:33:27;;;;;;;;;;;;;;;;;;1052981;28;3961;-60
2023/01/11 01:33:57;;;;;;;;;;;;;;;;;;1051861;28;2794;-60
2023/01/11 01:34:27;;;;;;;;;;;;;;;;;;1051346;28;3929;-59
2023/01/11 01:34:58;;;;;;;;;;;;;;;;;;1051559;28;1830;-59
2023/01/11 01:35:28;;;;;;;;;;;;;;;;;;1052823;28;4046;-60
2023/01/11 01:36:00;;;;;;;;;;;;;;;;;;1053562;28;2129;-60
2023/01/11 01:36:30;;;;;;;;;;;;;;;;;;1048062;28;3722;-60
2023/01/11 01:37:00;;;;;;;;;;;;;;;;;;1048220;28;3221;-60
2023/01/11 01:37:30;;;;;;;;;;;;;;;;;;1047155;28;4451;-60
2023/01/11 01:38:01;;;;;;;;;;;;;;;;;;1049714;28;2795;-59
2023/01/11 01:38:31;;;;;;;;;;;;;;;;;;1051378;28;3876;-59
2023/01/11 01:39:02;;;;;;;;;;;;;;;;;;1053835;28;2104;-59
2023/01/11 01:39:33;;;;;;;;;;;;;;;;;;1052412;28;3924;-60
2023/01/11 01:40:03;;;;;;;;;;;;;;;;;;1053374;28;1792;-58
2023/01/11 01:40:39;;;;;;;;;;;;;;;;;;1050631;28;3697;-59
2023/01/11 01:41:11;;;;;;;;;;;;;;;;;;1052622;28;2418;-58
2023/01/11 01:41:42;;;;;;;;;;;;;;;;;;1053850;28;3747;-59
2023/01/11 01:42:16;;;;;;;;;;;;;;;;;;1054038;28;4022;-57
2023/01/11 01:42:51;;;;;;;;;;;;;;;;;;1050761;28;1925;-59
2023/01/11 01:43:22;;;;;;;;;;;;;;;;;;1054505;28;3919;-60
2023/01/11 01:43:54;;;;;;;;;;;;;;;;;;1052135;28;2610;-59
2023/01/11 01:44:54;;;;;;;;;;;;;;;;;;1052976;28;3878;-59
2023/01/11 01:45:37;;;;;;;;;;;;;;;;;;1032626;28;4379;-59
2023/01/11 01:46:15;;;;;;;;;;;;;;;;;;1046336;28;2643;-59
2023/01/11 01:46:45;;;;;;;;;;;;;;;;;;1045659;28;3655;-59
2023/01/11 01:47:16;;;;;;;;;;;;;;;;;;1046356;28;4257;-60
2023/01/11 01:47:49;;;;;;;;;;;;;;;;;;1046091;28;1868;-59
2023/01/11 01:48:24;;;;;;;;;;;;;;;;;;1043523;28;4414;-59
2023/01/11 01:49:03;;;;;;;;;;;;;;;;;;1045717;28;2055;-59
2023/01/11 01:49:33;;;;;;;;;;;;;;;;;;1045611;28;3815;-60
2023/01/11 01:50:06;;;;;;;;;;;;;;;;;;1044285;28;1648;-59
2023/01/11 01:50:54;;;;;;;;;;;;;;;;;;1045405;28;4362;-59
2023/01/11 01:51:27;;;;;;;;;;;;;;;;;;1044626;28;3781;-60
2023/01/11 01:51:57;;;;;;;;;;;;;;;;;;1044124;28;3006;-60
2023/01/11 01:52:28;;;;;;;;;;;;;;;;;;1044947;28;3759;-59
2023/01/11 01:53:01;;;;;;;;;;;;;;;;;;1046779;28;1768;-59
2023/01/11 01:53:35;;;;;;;;;;;;;;;;;;1043825;28;3912;-59
2023/01/11 01:54:07;;;;;;;;;;;;;;;;;;1043377;28;2150;-59
2023/01/11 01:54:40;;;;;;;;;;;;;;;;;;1044966;28;3933;-58
2023/01/11 01:55:11;;;;;;;;;;;;;;;;;;1044657;28;2025;-59
2023/01/11 01:55:44;;;;;;;;;;;;;;;;;;1046359;28;3848;-59
2023/01/11 01:56:17;;;;;;;;;;;;;;;;;;1043696;28;3879;-59
2023/01/11 01:56:49;;;;;;;;;;;;;;;;;;1046470;28;2027;-59
2023/01/11 01:57:21;;;;;;;;;;;;;;;;;;1045643;28;4360;-58
2023/01/11 01:57:52;;;;;;;;;;;;;;;;;;1046262;28;1622;-59
2023/01/11 01:58:26;;;;;;;;;;;;;;;;;;1044400;28;3997;-60
2023/01/11 01:58:58;;;;;;;;;;;;;;;;;;1049128;28;1623;-59
2023/01/11 01:59:29;;;;;;;;;;;;;;;;;;1047199;28;3926;-58
2023/01/11 02:00:01;;;;;;;;;;;;;;;;;;1046375;28;1738;-60
2023/01/11 02:00:32;;;;;;;;;;;;;;;;;;1043718;28;3784;-60
2023/01/11 02:01:45;;;;;;;;;;;;;;;;;;1046243;28;2397;-59
2023/01/11 02:01:52;;;;;;;;;;;;;;;;;;1044001;28;3834;-59
2023/01/11 02:02:23;;;;;;;;;;;;;;;;;;1044904;28;3834;-58
2023/01/11 02:02:56;;;;;;;;;;;;;;;;;;1043510;28;1713;-59
2023/01/11 02:03:26;;;;;;;;;;;;;;;;;;1044529;28;3929;-59
2023/01/11 02:03:56;;;;;;;;;;;;;;;;;;1046728;28;1766;-59
2023/01/11 02:04:36;;;;;;;;;;;;;;;;;;1050090;28;3940;-59
2023/01/11 02:05:07;;;;;;;;;;;;;;;;;;1047802;28;2101;-59
2023/01/11 02:05:37;;;;;;;;;;;;;;;;;;1041653;28;3767;-60
2023/01/11 02:06:08;;;;;;;;;;;;;;;;;;1040734;28;1763;-59
2023/01/11 02:06:38;;;;;;;;;;;;;;;;;;1045074;28;3790;-59
2023/01/11 02:07:19;;;;;;;;;;;;;;;;;;1046000;28;1768;-59
2023/01/11 02:07:50;;;;;;;;;;;;;;;;;;1045614;28;3948;-59
2023/01/11 02:08:40;;;;;;;;;;;;;;;;;;1044628;28;3781;-59
2023/01/11 02:09:17;;;;;;;;;;;;;;;;;;1043557;28;2262;-59
2023/01/11 02:10:08;;;;;;;;;;;;;;;;;;1045234;28;3930;-59
2023/01/11 02:10:38;;;;;;;;;;;;;;;;;;1043485;28;3864;-58
2023/01/11 02:11:28;;;;;;;;;;;;;;;;;;1047237;28;2178;-59
2023/01/11 02:11:59;;;;;;;;;;;;;;;;;;1042916;28;4011;-59
2023/01/11 02:12:38;;;;;;;;;;;;;;;;;;1044434;28;3881;-59
2023/01/11 02:13:09;;;;;;;;;;;;;;;;;;1042971;28;1861;-59
2023/01/11 02:13:44;;;;;;;;;;;;;;;;;;1045060;28;3703;-60
2023/01/11 02:14:16;;;;;;;;;;;;;;;;;;1045526;28;4115;-59
2023/01/11 02:14:48;;;;;;;;;;;;;;;;;;1043339;28;1985;-59
2023/01/11 02:15:19;;;;;;;;;;;;;;;;;;1042385;28;4044;-59
2023/01/11 02:16:06;;;;;;;;;;;;;;;;;;1045632;28;2099;-59
2023/01/11 02:16:37;;;;;;;;;;;;;;;;;;1041877;28;3999;-60
2023/01/11 02:17:08;;;;;;;;;;;;;;;;;;1042853;28;2217;-60
2023/01/11 02:17:38;;;;;;;;;;;;;;;;;;1044213;28;3907;-59
2023/01/11 02:18:09;;;;;;;;;;;;;;;;;;1045569;28;2826;-59
2023/01/11 02:18:41;;;;;;;;;;;;;;;;;;1045349;28;3989;-59
2023/01/11 02:19:19;;;;;;;;;;;;;;;;;;1045766;28;2485;-59
2023/01/11 02:20:10;;;;;;;;;;;;;;;;;;1044664;28;3743;-58
2023/01/11 02:21:12;;;;;;;;;;;;;;;;;;1045098;28;3945;-60
2023/01/11 02:22:18;;;;;;;;;;;;;;;;;;1027018;28;3893;-59
2023/01/11 02:22:51;;;;;;;;;;;;;;;;;;1027963;28;3802;-59
2023/01/11 02:23:35;;;;;;;;;;;;;;;;;;1034119;28;4034;-59
2023/01/11 02:24:24;;;;;;;;;;;;;;;;;;1037342;28;2371;-58
2023/01/11 02:25:05;;;;;;;;;;;;;;;;;;1033248;28;5712;-60
2023/01/11 02:26:03;;;;;;;;;;;;;;;;;;1041802;28;3988;-59
2023/01/11 02:26:37;;;;;;;;;;;;;;;;;;1042899;28;3845;-59
2023/01/11 02:27:10;;;;;;;;;;;;;;;;;;1042933;28;1954;-59
2023/01/11 02:27:59;;;;;;;;;;;;;;;;;;1043744;28;3737;-60
2023/01/11 02:28:40;;;;;;;;;;;;;;;;;;1043393;28;3935;-58
2023/01/11 02:29:29;;;;;;;;;;;;;;;;;;1043419;28;2036;-59
2023/01/11 02:30:08;;;;;;;;;;;;;;;;;;1044661;28;3660;-59
2023/01/11 02:30:52;;;;;;;;;;;;;;;;;;1044787;28;3802;-59
2023/01/11 02:31:22;;;;;;;;;;;;;;;;;;1044157;28;4207;-59
2023/01/11 02:31:55;;;;;;;;;;;;;;;;;;1042398;28;2145;-59
2023/01/11 02:32:32;;;;;;;;;;;;;;;;;;1044767;28;4349;-59
2023/01/11 02:33:21;;;;;;;;;;;;;;;;;;1042980;28;2117;-59
2023/01/11 02:33:57;;;;;;;;;;;;;;;;;;1045720;28;4022;-59
2023/01/11 02:34:38;;;;;;;;;;;;;;;;;;1041976;28;3977;-59
2023/01/11 02:35:21;;;;;;;;;;;;;;;;;;1042361;28;1932;-59
2023/01/11 02:35:52;;;;;;;;;;;;;;;;;;1045986;28;4050;-60
2023/01/11 02:36:28;;;;;;;;;;;;;;;;;;1043691;28;3941;-59
2023/01/11 02:37:17;;;;;;;;;;;;;;;;;;1046205;28;2619;-60
2023/01/11 02:37:48;;;;;;;;;;;;;;;;;;1043979;28;3987;-59
2023/01/11 02:38:26;;;;;;;;;;;;;;;;;;1043678;28;3948;-60
2023/01/11 02:39:04;;;;;;;;;;;;;;;;;;1044768;28;1674;-60
2023/01/11 02:39:44;;;;;;;;;;;;;;;;;;1045285;28;4282;-59
2023/01/11 02:40:14;;;;;;;;;;;;;;;;;;1042558;28;4385;-59
2023/01/11 02:41:03;;;;;;;;;;;;;;;;;;1045781;28;2678;-58
2023/01/11 02:45:01;;;;;;;;;;;;;;;;;;1044443;28;3854;-59
2023/01/11 02:45:37;;;;;;;;;;;;;;;;;;1047399;28;3981;-60
2023/01/11 02:46:17;;;;;;;;;;;;;;;;;;1053027;28;2015;-59
2023/01/11 02:46:55;;;;;;;;;;;;;;;;;;1051636;28;3993;-59
2023/01/11 02:47:44;;;;;;;;;;;;;;;;;;1051489;28;3765;-59
2023/01/11 02:48:18;;;;;;;;;;;;;;;;;;1053235;28;4284;-59
2023/01/11 02:48:54;;;;;;;;;;;;;;;;;;1051382;28;2901;-59
2023/01/11 02:49:24;;;;;;;;;;;;;;;;;;1051907;28;3942;-59
2023/01/11 02:50:11;;;;;;;;;;;;;;;;;;1050571;28;2752;-59
2023/01/11 02:50:45;;;;;;;;;;;;;;;;;;1053942;28;3711;-58
2023/01/11 02:51:18;;;;;;;;;;;;;;;;;;1052493;28;4047;-59
2023/01/11 02:52:01;;;;;;;;;;;;;;;;;;1053575;28;2483;-59
2023/01/11 02:52:42;;;;;;;;;;;;;;;;;;1054172;28;3909;-59
2023/01/11 02:53:13;;;;;;;;;;;;;;;;;;1049965;28;3949;-59
2023/01/11 02:53:46;;;;;;;;;;;;;;;;;;1053953;28;3250;-59
2023/01/11 02:54:18;;;;;;;;;;;;;;;;;;1051324;28;4092;-59
2023/01/11 02:54:53;;;;;;;;;;;;;;;;;;1051210;28;2203;-59
2023/01/11 02:55:29;;;;;;;;;;;;;;;;;;1053268;28;3958;-58
2023/01/11 02:56:02;;;;;;;;;;;;;;;;;;1054193;28;1516;-59
2023/01/11 02:56:36;;;;;;;;;;;;;;;;;;1053946;28;3747;-60
2023/01/11 02:57:08;;;;;;;;;;;;;;;;;;1052774;28;2977;-59
2023/01/11 02:57:41;;;;;;;;;;;;;;;;;;1052694;28;4108;-59
2023/01/11 02:58:12;;;;;;;;;;;;;;;;;;1048519;28;1910;-59
2023/01/11 02:58:44;;;;;;;;;;;;;;;;;;1046740;28;4107;-60
2023/01/11 02:59:17;;;;;;;;;;;;;;;;;;1049921;28;3970;-58
2023/01/11 02:59:48;;;;;;;;;;;;;;;;;;1045875;28;2502;-59
2023/01/11 03:00:20;;;;;;;;;;;;;;;;;;1045914;28;4013;-59
2023/01/11 03:00:51;;;;;;;;;;;;;;;;;;1048198;28;2759;-59
2023/01/11 03:01:22;;;;;;;;;;;;;;;;;;1047628;28;3953;-59
2023/01/11 03:01:54;;;;;;;;;;;;;;;;;;1047305;28;1928;-60
2023/01/11 03:02:24;;;;;;;;;;;;;;;;;;1046781;28;3888;-59
2023/01/11 03:03:24;;;;;;;;;;;;;;;;;;1049320;28;2717;-59
2023/01/11 03:03:54;;;;;;;;;;;;;;;;;;1033781;28;3800;-59
2023/01/11 03:04:29;;;;;;;;;;;;;;;;;;1053800;28;4431;-60
2023/01/11 03:04:59;;;;;;;;;;;;;;;;;;1050556;28;3142;-60
2023/01/11 03:05:29;;;;;;;;;;;;;;;;;;1054154;28;3763;-59
2023/01/11 03:06:02;;;;;;;;;;;;;;;;;;1053261;28;2159;-59
2023/01/11 03:06:33;;;;;;;;;;;;;;;;;;1052850;28;3999;-58
2023/01/11 03:07:10;;;;;;;;;;;;;;;;;;1051973;28;2429;-59
2023/01/11 03:07:47;;;;;;;;;;;;;;;;;;1051936;28;3915;-60
2023/01/11 03:08:27;;;;;;;;;;;;;;;;;;1047295;28;4055;-59
2023/01/11 03:09:00;;;;;;;;;;;;;;;;;;1047542;28;2667;-59
2023/01/11 03:09:49;;;;;;;;;;;;;;;;;;1047408;28;4227;-59
2023/01/11 03:10:26;;;;;;;;;;;;;;;;;;1051228;28;4020;-60
2023/01/11 03:10:56;;;;;;;;;;;;;;;;;;1051250;28;1760;-60
2023/01/11 03:12:55;;;;;;;;;;;;;;;;;;1048023;28;4384;-59
2023/01/11 03:13:39;;;;;;;;;;;;;;;;;;1051671;28;3914;-59
2023/01/11 03:14:19;;;;;;;;;;;;;;;;;;1052083;28;2098;-59
2023/01/11 03:14:49;;;;;;;;;;;;;;;;;;1053963;28;4065;-60
2023/01/11 03:15:49;;;;;;;;;;;;;;;;;;1052692;28;4059;-60
2023/01/11 03:16:52;;;;;;;;;;;;;;;;;;1031315;28;3865;-59
2023/01/11 03:17:22;;;;;;;;;;;;;;;;;;1039922;28;4056;-59
2023/01/11 03:17:53;;;;;;;;;;;;;;;;;;1044483;28;1890;-59
2023/01/11 03:18:27;;;;;;;;;;;;;;;;;;1043828;28;4418;-60
2023/01/11 03:19:16;;;;;;;;;;;;;;;;;;1051183;28;2011;-58
2023/01/11 03:19:51;;;;;;;;;;;;;;;;;;1051544;28;3619;-59
2023/01/11 03:20:26;;;;;;;;;;;;;;;;;;1051415;28;4035;-59
2023/01/11 03:21:06;;;;;;;;;;;;;;;;;;1054030;28;2558;-59
2023/01/11 03:21:41;;;;;;;;;;;;;;;;;;1051347;28;3809;-59
2023/01/11 03:22:18;;;;;;;;;;;;;;;;;;1051368;28;2751;-59
2023/01/11 03:22:59;;;;;;;;;;;;;;;;;;1051256;28;3959;-59
2023/01/11 03:23:35;;;;;;;;;;;;;;;;;;1051556;28;3784;-59
2023/01/11 03:24:08;;;;;;;;;;;;;;;;;;1051879;28;2186;-59
2023/01/11 03:24:57;;;;;;;;;;;;;;;;;;1052380;28;3933;-59
2023/01/11 03:25:42;;;;;;;;;;;;;;;;;;1046781;28;4069;-59
2023/01/11 03:26:20;;;;;;;;;;;;;;;;;;1044961;28;2656;-60
2023/01/11 03:26:57;;;;;;;;;;;;;;;;;;1045968;28;3925;-58
2023/01/11 03:27:32;;;;;;;;;;;;;;;;;;1048346;28;4013;-59
2023/01/11 03:28:11;;;;;;;;;;;;;;;;;;1051575;28;2290;-59
2023/01/11 03:29:17;;;;;;;;;;;;;;;;;;1053485;28;3699;-60
2023/01/11 03:30:00;;;;;;;;;;;;;;;;;;1030799;28;4009;-59
2023/01/11 03:30:33;;;;;;;;;;;;;;;;;;1031232;28;4403;-59
2023/01/11 03:31:12;;;;;;;;;;;;;;;;;;1030714;28;2795;-58
2023/01/11 03:31:45;;;;;;;;;;;;;;;;;;1032497;28;3985;-59
2023/01/11 03:32:19;;;;;;;;;;;;;;;;;;1031292;28;4263;-59
2023/01/11 03:32:58;;;;;;;;;;;;;;;;;;1054215;28;1631;-60
2023/01/11 03:33:34;;;;;;;;;;;;;;;;;;1049792;28;3959;-59
2023/01/11 03:34:21;;;;;;;;;;;;;;;;;;1048923;28;2851;-59
2023/01/11 03:35:04;;;;;;;;;;;;;;;;;;1047627;28;3875;-58
2023/01/11 03:35:53;;;;;;;;;;;;;;;;;;1055273;28;4378;-59
2023/01/11 03:36:30;;;;;;;;;;;;;;;;;;1051587;28;4424;-58
2023/01/11 03:37:06;;;;;;;;;;;;;;;;;;1052524;28;2588;-60
2023/01/11 03:37:46;;;;;;;;;;;;;;;;;;1052175;28;3742;-59
2023/01/11 03:38:16;;;;;;;;;;;;;;;;;;1048335;28;3820;-60
2023/01/11 03:38:56;;;;;;;;;;;;;;;;;;1051160;28;2464;-58
2023/01/11 03:39:28;;;;;;;;;;;;;;;;;;1049210;28;4030;-59
2023/01/11 03:40:04;;;;;;;;;;;;;;;;;;1050393;28;2066;-59
2023/01/11 03:40:50;;;;;;;;;;;;;;;;;;1050022;28;3864;-59
2023/01/11 03:41:24;;;;;;;;;;;;;;;;;;1048279;28;3984;-59
2023/01/11 03:41:56;;;;;;;;;;;;;;;;;;1047026;28;2657;-58
2023/01/11 03:42:27;;;;;;;;;;;;;;;;;;1048674;28;3876;-59
2023/01/11 03:43:12;;;;;;;;;;;;;;;;;;1051529;28;1602;-59
2023/01/11 03:43:43;;;;;;;;;;;;;;;;;;1052695;28;3878;-59
2023/01/11 03:44:15;;;;;;;;;;;;;;;;;;1052653;28;4078;-59
2023/01/11 03:44:49;;;;;;;;;;;;;;;;;;1051698;28;3005;-60
2023/01/11 03:45:19;;;;;;;;;;;;;;;;;;1050994;28;4284;-60
2023/01/11 03:46:01;;;;;;;;;;;;;;;;;;1051054;28;2404;-59
2023/01/11 03:46:41;;;;;;;;;;;;;;;;;;1053498;28;3859;-59
2023/01/11 03:47:18;;;;;;;;;;;;;;;;;;1052565;28;3754;-59
2023/01/11 03:47:50;;;;;;;;;;;;;;;;;;1052783;28;2772;-60
2023/01/11 03:48:26;;;;;;;;;;;;;;;;;;1052756;28;5111;-59
2023/01/11 03:49:02;;;;;;;;;;;;;;;;;;1052034;28;2040;-59
2023/01/11 03:49:35;;;;;;;;;;;;;;;;;;1052881;28;4389;-59
2023/01/11 03:50:07;;;;;;;;;;;;;;;;;;1051371;28;2517;-60
2023/01/11 03:50:38;;;;;;;;;;;;;;;;;;1052598;28;3747;-59
2023/01/11 03:51:10;;;;;;;;;;;;;;;;;;1051974;27;3952;-59
2023/01/11 03:51:42;;;;;;;;;;;;;;;;;;1053857;27;3953;-59
2023/01/11 03:52:14;;;;;;;;;;;;;;;;;;1054241;28;1841;-59
2023/01/11 03:52:45;;;;;;;;;;;;;;;;;;1053435;28;3791;-59
2023/01/11 03:53:17;;;;;;;;;;;;;;;;;;1052222;28;3950;-59
2023/01/11 03:53:48;;;;;;;;;;;;;;;;;;1054721;28;3033;-59
2023/01/11 03:54:21;;;;;;;;;;;;;;;;;;1049627;28;3878;-59
2023/01/11 03:54:53;;;;;;;;;;;;;;;;;;1052772;28;1973;-59
2023/01/11 03:55:25;;;;;;;;;;;;;;;;;;1047560;28;4387;-59
2023/01/11 03:55:57;;;;;;;;;;;;;;;;;;1050177;28;2531;-59
2023/01/11 03:56:35;;;;;;;;;;;;;;;;;;1049067;28;4057;-59
2023/01/11 03:57:25;;;;;;;;;;;;;;;;;;1052320;28;2190;-59
2023/01/11 03:57:56;;;;;;;;;;;;;;;;;;1032427;28;3818;-59
2023/01/11 03:58:27;;;;;;;;;;;;;;;;;;1051550;28;4292;-57
2023/01/11 03:58:57;;;;;;;;;;;;;;;;;;1054808;28;1423;-59
2023/01/11 03:59:27;;;;;;;;;;;;;;;;;;1046858;28;4024;-59
2023/01/11 03:59:58;;;;;;;;;;;;;;;;;;1049759;28;1819;-59
2023/01/11 04:00:29;;;;;;;;;;;;;;;;;;1047758;28;3853;-60
2023/01/11 04:01:00;;;;;;;;;;;;;;;;;;1050425;28;1760;-59
2023/01/11 04:01:30;;;;;;;;;;;;;;;;;;1051366;28;4416;-60
2023/01/11 04:02:01;;;;;;;;;;;;;;;;;;1056032;28;1725;-59
2023/01/11 04:02:37;;;;;;;;;;;;;;;;;;1052682;28;4070;-59
2023/01/11 04:03:11;;;;;;;;;;;;;;;;;;1051613;28;2765;-58
2023/01/11 04:03:41;;;;;;;;;;;;;;;;;;1052310;28;3663;-59
2023/01/11 04:04:11;;;;;;;;;;;;;;;;;;1053348;28;3181;-60
2023/01/11 04:04:42;;;;;;;;;;;;;;;;;;1051591;28;3810;-59
2023/01/11 04:05:12;;;;;;;;;;;;;;;;;;1051795;28;1977;-59
2023/01/11 04:05:43;;;;;;;;;;;;;;;;;;1052267;28;3852;-59
2023/01/11 04:06:14;;;;;;;;;;;;;;;;;;1053039;28;4052;-59
2023/01/11 04:06:44;;;;;;;;;;;;;;;;;;1055051;28;1854;-58
2023/01/11 04:07:15;;;;;;;;;;;;;;;;;;1052297;28;4334;-59
2023/01/11 04:07:45;;;;;;;;;;;;;;;;;;1051350;28;2703;-59
2023/01/11 04:08:15;;;;;;;;;;;;;;;;;;1050854;27;4159;-59
2023/01/11 04:08:46;;;;;;;;;;;;;;;;;;1053554;28;1552;-58
2023/01/11 04:09:16;;;;;;;;;;;;;;;;;;1052185;28;4053;-59
2023/01/11 04:09:46;;;;;;;;;;;;;;;;;;1053963;28;2406;-59